createdAt,value
2022-09-11T00:02:10.948Z,73.25
2022-09-11T00:04:38.809Z,73.24
2022-09-11T00:07:09.572Z,73.36
2022-09-11T00:09:37.632Z,73.52
2022-09-11T00:12:07.617Z,73.40
2022-09-11T00:14:36.135Z,73.52
2022-09-11T00:17:05.219Z,73.63
2022-09-11T00:19:34.308Z,73.51
2022-09-11T00:22:06.135Z,73.28
2022-09-11T00:24:34.110Z,73.22
2022-09-11T00:27:02.380Z,73.06
2022-09-11T00:29:30.492Z,73.23
2022-09-11T00:31:58.825Z,73.43
2022-09-11T00:34:26.750Z,73.46
2022-09-11T00:36:54.863Z,73.53
2022-09-11T00:39:22.791Z,73.69
2022-09-11T00:41:51.855Z,73.75
2022-09-11T00:44:20.404Z,73.73
2022-09-11T00:46:57.212Z,73.70
2022-09-11T00:49:43.281Z,73.52
2022-09-11T00:52:17.116Z,73.50
2022-09-11T00:54:54.323Z,73.28
2022-09-11T00:57:25.586Z,72.94
2022-09-11T00:59:56.988Z,72.75
2022-09-11T01:02:27.620Z,72.87
2022-09-11T01:04:57.566Z,72.85
2022-09-11T01:07:27.268Z,72.85
2022-09-11T01:09:55.942Z,72.85
2022-09-11T01:12:36.531Z,72.61
2022-09-11T01:15:09.605Z,72.45
2022-09-11T01:17:58.231Z,72.52
2022-09-11T01:20:47.517Z,72.84
2022-09-11T01:23:25.763Z,72.89
2022-09-11T01:26:35.162Z,72.80
2022-09-11T01:29:03.290Z,72.61
2022-09-11T01:31:58.194Z,72.32
2022-09-11T01:34:46.228Z,72.32
2022-09-11T01:37:18.932Z,72.25
2022-09-11T01:39:54.003Z,72.12
2022-09-11T01:42:23.458Z,72.38
2022-09-11T01:44:59.940Z,72.33
2022-09-11T01:47:29.469Z,72.02
2022-09-11T01:50:06.347Z,72.21
2022-09-11T01:52:40.462Z,72.44
2022-09-11T01:55:17.150Z,72.82
2022-09-11T01:57:53.373Z,72.95
2022-09-11T02:00:23.941Z,73.17
2022-09-11T02:03:58.758Z,72.92
2022-09-11T02:07:16.610Z,73.19
2022-09-11T02:10:03.038Z,73.10
2022-09-11T02:12:40.977Z,72.98
2022-09-11T02:15:09.983Z,72.81
2022-09-11T02:17:54.744Z,72.88
2022-09-11T02:20:28.931Z,72.67
2022-09-11T02:22:59.001Z,72.50
2022-09-11T02:25:28.463Z,72.58
2022-09-11T02:27:57.762Z,72.79
2022-09-11T02:30:25.695Z,72.81
2022-09-11T02:37:31.577Z,72.53
2022-09-11T02:40:32.259Z,72.58
2022-09-11T02:43:06.453Z,72.82
2022-09-11T02:45:49.253Z,72.92
2022-09-11T02:48:37.090Z,72.95
2022-09-11T02:51:15.789Z,72.85
2022-09-11T02:54:08.342Z,72.72
2022-09-11T02:57:04.980Z,72.79
2022-09-11T02:59:38.631Z,72.68
2022-09-11T03:02:10.754Z,72.63
2022-09-11T03:04:39.003Z,72.95
2022-09-11T03:07:06.857Z,73.34
2022-09-11T03:09:35.080Z,73.71
2022-09-11T03:12:10.355Z,73.85
2022-09-11T03:14:38.643Z,74.10
2022-09-11T03:17:06.632Z,74.36
2022-09-11T03:19:36.702Z,74.41
2022-09-11T03:22:04.751Z,74.54
2022-09-11T03:24:34.273Z,74.61
2022-09-11T03:27:02.344Z,74.49
2022-09-11T03:29:32.971Z,74.31
2022-09-11T03:32:01.403Z,74.28
2022-09-11T03:34:33.022Z,74.44
2022-09-11T03:37:02.268Z,74.61
2022-09-11T03:39:30.727Z,74.68
2022-09-11T03:42:01.242Z,74.93
2022-09-11T03:44:30.263Z,75.21
2022-09-11T03:46:58.196Z,75.24
2022-09-11T03:49:30.246Z,75.48
2022-09-11T03:51:58.054Z,75.71
2022-09-11T03:54:32.878Z,75.62
2022-09-11T03:57:01.626Z,75.76
2022-09-11T03:59:31.314Z,75.71
2022-09-11T04:01:59.467Z,75.72
2022-09-11T04:04:28.274Z,75.70
2022-09-11T04:06:59.366Z,75.75
2022-09-11T04:09:30.581Z,75.70
2022-09-11T04:11:59.782Z,75.81
2022-09-11T04:14:29.158Z,75.39
2022-09-11T04:16:59.710Z,75.43
2022-09-11T04:19:29.941Z,75.44
2022-09-11T04:22:03.167Z,75.54
2022-09-11T04:24:35.342Z,75.35
2022-09-11T04:27:03.668Z,75.31
2022-09-11T04:29:34.168Z,75.35
2022-09-11T04:32:02.689Z,75.23
2022-09-11T04:34:33.433Z,75.37
2022-09-11T04:37:01.642Z,75.25
2022-09-11T04:39:30.783Z,75.28
2022-09-11T04:41:59.214Z,75.21
2022-09-11T04:44:28.499Z,75.33
2022-09-11T04:46:56.838Z,75.35
2022-09-11T04:49:25.325Z,75.37
2022-09-11T04:51:53.387Z,75.38
2022-09-11T04:54:26.498Z,75.49
2022-09-11T04:56:55.055Z,75.33
2022-09-11T04:59:23.897Z,75.47
2022-09-11T05:02:14.101Z,75.43
2022-09-11T05:04:47.128Z,75.00
2022-09-11T05:07:15.627Z,75.03
2022-09-11T05:09:48.856Z,75.14
2022-09-11T05:12:17.867Z,75.11
2022-09-11T05:14:48.205Z,74.92
2022-09-11T05:17:16.510Z,74.87
2022-09-11T05:19:47.448Z,74.58
2022-09-11T05:22:15.904Z,74.45
2022-09-11T05:24:49.301Z,74.72
2022-09-11T05:27:17.776Z,74.57
2022-09-11T05:29:46.567Z,74.58
2022-09-11T05:32:15.919Z,74.33
2022-09-11T05:34:46.678Z,74.44
2022-09-11T05:37:16.472Z,74.44
2022-09-11T05:39:52.566Z,74.80
2022-09-11T05:42:25.043Z,74.62
2022-09-11T05:44:55.157Z,74.55
2022-09-11T05:47:24.444Z,74.66
2022-09-11T05:49:53.449Z,74.70
2022-09-11T05:52:21.446Z,74.54
2022-09-11T05:54:53.731Z,74.67
2022-09-11T05:57:22.587Z,74.84
2022-09-11T05:59:52.027Z,75.00
2022-09-11T06:02:20.948Z,75.07
2022-09-11T06:04:59.013Z,75.05
2022-09-11T06:07:27.091Z,75.23
2022-09-11T06:09:59.703Z,75.33
2022-09-11T06:12:33.782Z,75.24
2022-09-11T06:15:03.429Z,75.23
2022-09-11T06:17:31.499Z,75.32
2022-09-11T06:20:01.262Z,75.43
2022-09-11T06:22:29.946Z,75.52
2022-09-11T06:24:59.789Z,75.34
2022-09-11T06:27:28.365Z,75.27
2022-09-11T06:29:56.389Z,74.82
2022-09-11T06:32:24.310Z,75.00
2022-09-11T06:34:54.576Z,75.06
2022-09-11T06:37:23.961Z,75.03
2022-09-11T06:39:51.984Z,75.21
2022-09-11T06:42:26.279Z,75.30
2022-09-11T06:44:54.572Z,75.29
2022-09-11T06:47:22.823Z,75.07
2022-09-11T06:49:51.006Z,75.21
2022-09-11T06:52:39.169Z,75.28
2022-09-11T06:55:16.620Z,75.39
2022-09-11T06:57:51.334Z,75.59
2022-09-11T07:00:24.192Z,75.64
2022-09-11T07:02:53.250Z,75.50
2022-09-11T07:05:27.325Z,75.54
2022-09-11T07:07:57.485Z,75.70
2022-09-11T07:11:02.478Z,75.64
2022-09-11T07:13:38.517Z,75.38
2022-09-11T07:16:17.735Z,75.51
2022-09-11T07:18:48.914Z,75.59
2022-09-11T07:21:23.232Z,75.38
2022-09-11T07:23:57.661Z,75.46
2022-09-11T07:26:32.821Z,75.10
2022-09-11T07:29:07.282Z,75.10
2022-09-11T07:31:43.159Z,75.15
2022-09-11T07:34:11.805Z,74.81
2022-09-11T07:36:42.677Z,74.62
2022-09-11T07:39:20.731Z,74.66
2022-09-11T07:41:54.115Z,74.77
2022-09-11T07:44:29.016Z,74.78
2022-09-11T07:47:02.616Z,74.05
2022-09-11T07:49:32.633Z,74.27
2022-09-11T07:52:03.776Z,74.62
2022-09-11T07:54:39.826Z,74.15
2022-09-11T07:57:12.712Z,73.93
2022-09-11T07:59:46.625Z,74.24
2022-09-11T08:02:18.294Z,74.18
2022-09-11T08:04:46.242Z,74.11
2022-09-11T08:07:14.434Z,74.05
2022-09-11T08:09:43.598Z,73.81
2022-09-11T08:12:12.121Z,73.81
2022-09-11T08:14:40.713Z,73.74
2022-09-11T08:17:12.437Z,73.55
2022-09-11T08:19:40.812Z,73.29
2022-09-11T08:22:09.046Z,73.02
2022-09-11T08:24:45.657Z,72.61
2022-09-11T08:27:19.479Z,72.51
2022-09-11T08:29:47.858Z,72.29
2022-09-11T08:32:16.634Z,72.45
2022-09-11T08:34:45.627Z,72.88
2022-09-11T08:37:15.496Z,72.84
2022-09-11T08:39:43.783Z,71.60
2022-09-11T08:42:18.997Z,71.58
2022-09-11T08:44:57.493Z,71.23
2022-09-11T08:47:45.821Z,70.97
2022-09-11T08:50:20.533Z,71.05
2022-09-11T08:52:51.151Z,70.93
2022-09-11T08:56:02.697Z,71.11
2022-09-11T08:58:58.598Z,70.38
2022-09-11T09:01:37.298Z,69.64
2022-09-11T09:04:34.349Z,70.09
2022-09-11T09:07:25.188Z,69.72
2022-09-11T09:10:21.899Z,68.86
2022-09-11T09:13:10.997Z,69.13
2022-09-11T09:15:46.271Z,68.13
2022-09-11T09:18:28.463Z,67.93
2022-09-11T09:22:05.704Z,68.19
2022-09-11T09:24:50.717Z,67.52
2022-09-11T09:27:25.079Z,67.63
2022-09-11T09:30:05.854Z,67.81
2022-09-11T09:32:47.775Z,67.74
2022-09-11T09:35:26.764Z,66.96
2022-09-11T09:39:03.496Z,66.87
2022-09-11T09:41:52.746Z,66.79
2022-09-11T09:45:15.568Z,66.95
2022-09-11T09:47:49.528Z,66.32
2022-09-11T09:50:40.415Z,66.52
2022-09-11T09:53:43.481Z,66.78
2022-09-11T09:56:20.556Z,65.98
2022-09-11T09:59:13.246Z,65.57
2022-09-11T10:02:14.040Z,64.94
2022-09-11T10:04:43.338Z,64.69
2022-09-11T10:07:14.345Z,64.99
2022-09-11T10:09:50.908Z,64.39
2022-09-11T10:12:28.203Z,63.95
2022-09-11T10:14:59.179Z,63.20
2022-09-11T10:17:50.398Z,63.24
2022-09-11T10:20:29.256Z,63.69
2022-09-11T10:23:24.643Z,64.18
2022-09-11T10:25:55.255Z,64.46
2022-09-11T10:28:32.232Z,64.89
2022-09-11T10:31:05.735Z,64.94
2022-09-11T10:33:46.827Z,64.37
2022-09-11T10:36:22.988Z,64.62
2022-09-11T10:38:55.657Z,64.51
2022-09-11T10:41:28.543Z,64.47
2022-09-11T10:44:14.856Z,64.47
2022-09-11T10:46:46.650Z,64.62
2022-09-11T10:49:23.572Z,65.35
2022-09-11T10:52:10.237Z,66.19
2022-09-11T10:54:54.371Z,66.16
2022-09-11T10:57:30.180Z,66.37
2022-09-11T11:00:09.473Z,66.38
2022-09-11T11:02:54.580Z,66.72
2022-09-11T11:05:56.291Z,66.55
2022-09-11T11:09:06.595Z,65.76
2022-09-11T11:11:52.185Z,65.26
2022-09-11T11:14:39.003Z,64.56
2022-09-11T11:17:11.257Z,64.23
2022-09-11T11:20:10.876Z,63.00
2022-09-11T11:23:05.601Z,63.13
2022-09-11T11:26:07.636Z,63.05
2022-09-11T11:28:51.993Z,62.65
2022-09-11T11:31:44.534Z,62.82
2022-09-11T11:34:38.608Z,63.00
2022-09-11T11:37:19.023Z,63.03
2022-09-11T11:39:49.334Z,62.78
2022-09-11T11:42:31.527Z,63.12
2022-09-11T11:45:12.917Z,63.66
2022-09-11T11:47:54.199Z,64.30
2022-09-11T11:50:33.717Z,64.80
2022-09-11T11:53:18.458Z,65.49
2022-09-11T11:56:29.996Z,66.35
2022-09-11T11:59:31.475Z,67.06
2022-09-11T12:02:11.910Z,67.69
2022-09-11T12:05:11.262Z,68.41
2022-09-11T12:07:45.096Z,68.86
2022-09-11T12:10:34.557Z,69.61
2022-09-11T12:13:09.518Z,69.97
2022-09-11T12:15:40.065Z,70.28
2022-09-11T12:18:18.163Z,70.11
2022-09-11T12:20:55.537Z,70.49
2022-09-11T12:23:36.874Z,70.68
2022-09-11T12:26:22.777Z,70.83
2022-09-11T12:29:17.048Z,70.85
2022-09-11T12:31:51.342Z,70.93
2022-09-11T12:34:33.935Z,70.78
2022-09-11T12:37:11.926Z,70.91
2022-09-11T12:39:54.861Z,70.77
2022-09-11T12:42:26.411Z,70.81
2022-09-11T12:44:59.773Z,70.55
2022-09-11T12:47:35.349Z,69.93
2022-09-11T12:50:06.786Z,69.32
2022-09-11T12:52:46.958Z,69.19
2022-09-11T12:55:35.698Z,68.91
2022-09-11T12:58:34.398Z,68.76
2022-09-11T13:01:29.371Z,68.67
2022-09-11T13:04:17.447Z,67.64
2022-09-11T13:06:49.119Z,67.07
2022-09-11T13:09:30.329Z,66.01
2022-09-11T13:12:19.386Z,64.10
2022-09-11T13:14:56.300Z,61.79
2022-09-11T13:17:46.974Z,60.60
2022-09-11T13:20:57.200Z,60.84
2022-09-11T13:23:31.656Z,59.78
2022-09-11T13:26:05.458Z,59.03
2022-09-11T13:28:47.439Z,58.40
2022-09-11T13:31:39.120Z,57.67
2022-09-11T13:34:37.149Z,57.22
2022-09-11T13:37:58.955Z,57.22
2022-09-11T13:40:45.559Z,57.65
2022-09-11T13:43:31.668Z,57.65
2022-09-11T13:46:17.044Z,57.75
2022-09-11T13:48:51.067Z,58.06
2022-09-11T13:51:42.706Z,57.39
2022-09-11T13:54:33.767Z,57.43
2022-09-11T13:57:04.700Z,55.57
2022-09-11T13:59:47.540Z,54.88
2022-09-11T14:02:35.172Z,55.27
2022-09-11T14:05:09.953Z,55.42
2022-09-11T14:08:01.234Z,55.85
2022-09-11T14:10:44.603Z,56.30
2022-09-11T14:13:47.458Z,56.22
2022-09-11T14:16:37.614Z,56.73
2022-09-11T14:19:21.124Z,57.32
2022-09-11T14:21:53.262Z,57.49
2022-09-11T14:24:33.320Z,57.81
2022-09-11T14:27:05.043Z,58.00
2022-09-11T14:29:33.849Z,57.62
2022-09-11T14:32:34.561Z,57.62
2022-09-11T14:35:16.117Z,56.33
2022-09-11T14:37:46.225Z,57.01
2022-09-11T14:40:16.539Z,57.24
2022-09-11T14:42:47.653Z,57.71
2022-09-11T14:45:26.566Z,58.54
2022-09-11T14:47:55.826Z,58.96
2022-09-11T14:50:27.602Z,59.79
2022-09-11T14:52:56.496Z,60.61
2022-09-11T14:55:29.219Z,61.14
2022-09-11T14:57:57.360Z,61.86
2022-09-11T15:00:27.392Z,62.67
2022-09-11T15:02:57.202Z,63.14
2022-09-11T15:05:27.506Z,63.77
2022-09-11T15:07:56.117Z,64.01
2022-09-11T15:10:27.938Z,64.63
2022-09-11T15:12:57.209Z,64.81
2022-09-11T15:15:29.294Z,65.17
2022-09-11T15:17:59.581Z,65.29
2022-09-11T15:20:31.427Z,65.35
2022-09-11T15:23:00.834Z,65.54
2022-09-11T15:25:35.000Z,65.81
2022-09-11T15:28:12.617Z,65.70
2022-09-11T15:30:48.958Z,65.95
2022-09-11T15:33:17.253Z,65.78
2022-09-11T15:35:47.821Z,65.69
2022-09-11T15:38:17.830Z,65.93
2022-09-11T15:40:49.036Z,65.98
2022-09-11T15:43:21.391Z,65.76
2022-09-11T15:45:58.311Z,65.97
2022-09-11T15:48:32.901Z,66.05
2022-09-11T15:51:08.302Z,66.10
2022-09-11T15:53:43.158Z,66.47
2022-09-11T15:56:15.964Z,66.72
2022-09-11T15:58:53.137Z,66.59
2022-09-11T16:01:30.165Z,66.89
2022-09-11T16:04:05.365Z,66.95
2022-09-11T16:06:39.053Z,67.19
2022-09-11T16:09:27.915Z,67.35
2022-09-11T16:11:56.812Z,67.42
2022-09-11T16:14:27.478Z,67.48
2022-09-11T16:17:00.842Z,67.17
2022-09-11T16:19:31.640Z,67.14
2022-09-11T16:22:04.990Z,67.33
2022-09-11T16:24:38.153Z,66.80
2022-09-11T16:27:11.364Z,66.71
2022-09-11T16:30:20.228Z,66.75
2022-09-11T16:32:38.631Z,66.55
2022-09-11T16:35:08.957Z,66.63
2022-09-11T16:37:40.769Z,66.80
2022-09-11T16:40:15.137Z,66.92
2022-09-11T16:42:45.007Z,67.08
2022-09-11T16:45:15.888Z,67.12
2022-09-11T16:47:44.856Z,67.42
2022-09-11T16:50:16.926Z,67.32
2022-09-11T16:52:45.723Z,67.47
2022-09-11T16:55:17.707Z,67.60
2022-09-11T16:57:52.323Z,67.66
2022-09-11T17:00:24.474Z,67.91
2022-09-11T17:02:58.878Z,68.03
2022-09-11T17:05:27.471Z,68.09
2022-09-11T17:07:59.072Z,67.99
2022-09-11T17:13:47.561Z,68.34
2022-09-11T17:24:18.097Z,68.88
2022-09-11T17:26:48.191Z,69.06
2022-09-11T17:29:20.863Z,68.98
2022-09-11T17:32:05.055Z,69.16
2022-09-11T17:34:41.645Z,69.38
2022-09-11T17:37:11.572Z,69.62
2022-09-11T17:39:47.157Z,69.68
2022-09-11T17:42:19.242Z,69.86
2022-09-11T17:44:48.835Z,69.73
2022-09-11T17:47:17.012Z,69.96
2022-09-11T17:49:45.745Z,69.84
2022-09-11T17:52:22.172Z,70.12
2022-09-11T17:54:53.818Z,70.25
2022-09-11T17:57:26.239Z,70.17
2022-09-11T17:59:59.421Z,70.13
2022-09-11T18:02:28.297Z,70.25
2022-09-11T18:05:04.274Z,70.31
2022-09-11T18:07:32.997Z,70.27
2022-09-11T18:10:07.416Z,70.33
2022-09-11T18:12:43.781Z,70.40
2022-09-11T18:15:14.355Z,70.51
2022-09-11T18:17:44.970Z,70.62
2022-09-11T18:20:13.054Z,70.64
2022-09-11T18:22:45.709Z,70.53
2022-09-11T18:25:15.028Z,70.67
2022-09-11T18:27:45.228Z,70.75
2022-09-11T18:30:19.901Z,70.82
2022-09-11T18:32:51.296Z,70.69
2022-09-11T18:35:23.858Z,70.99
2022-09-11T18:37:52.461Z,71.14
2022-09-11T18:40:20.952Z,71.33
2022-09-11T18:42:49.315Z,71.35
2022-09-11T18:45:18.025Z,71.43
2022-09-11T18:47:55.314Z,71.44
2022-09-11T18:50:26.899Z,71.35
2022-09-11T18:52:56.667Z,71.34
2022-09-11T18:55:31.313Z,71.33
2022-09-11T18:58:00.988Z,71.11
2022-09-11T19:00:41.586Z,71.25
2022-09-11T19:03:10.977Z,71.25
2022-09-11T19:05:39.409Z,71.27
2022-09-11T19:08:08.301Z,71.25
2022-09-11T19:10:37.301Z,71.36
2022-09-11T19:13:05.463Z,71.27
2022-09-11T19:15:33.776Z,71.40
2022-09-11T19:18:05.406Z,71.57
2022-09-11T19:20:35.721Z,71.74
2022-09-11T19:23:06.688Z,71.67
2022-09-11T19:25:35.587Z,71.61
2022-09-11T19:28:04.831Z,71.61
2022-09-11T19:30:33.039Z,71.75
2022-09-11T19:33:03.553Z,71.68
2022-09-11T19:35:32.958Z,71.77
2022-09-11T19:38:01.956Z,71.75
2022-09-11T19:40:36.305Z,71.88
2022-09-11T19:43:22.910Z,71.91
2022-09-11T19:46:19.546Z,71.90
2022-09-11T19:48:48.603Z,72.12
2022-09-11T19:51:40.350Z,72.22
2022-09-11T19:54:23.332Z,72.15
2022-09-11T19:57:39.765Z,72.17
2022-09-11T20:00:42.615Z,72.19
2022-09-11T20:03:38.116Z,72.17
2022-09-11T20:06:10.854Z,72.22
2022-09-11T20:08:43.429Z,72.13
2022-09-11T20:11:41.955Z,72.10
2022-09-11T20:14:19.400Z,72.14
2022-09-11T20:17:00.551Z,72.38
2022-09-11T20:23:21.118Z,72.89
2022-09-11T20:26:19.388Z,73.15
2022-09-11T20:44:36.844Z,73.03
2022-09-11T20:47:12.661Z,73.10
2022-09-11T20:49:40.606Z,73.12
2022-09-11T20:52:11.357Z,73.17
2022-09-11T20:54:44.218Z,73.41
2022-09-11T20:57:12.552Z,73.57
2022-09-11T20:59:40.904Z,73.63
2022-09-11T21:02:10.168Z,73.57
2022-09-11T21:04:39.271Z,73.87
2022-09-11T21:07:07.233Z,73.83
2022-09-11T21:09:35.524Z,73.82
2022-09-11T21:12:04.934Z,73.97
2022-09-11T21:14:33.005Z,74.30
2022-09-11T21:17:03.455Z,74.24
2022-09-11T21:19:32.154Z,74.50
2022-09-11T21:22:01.461Z,74.50
2022-09-11T21:24:29.333Z,74.58
2022-09-11T21:26:59.447Z,74.58
2022-09-11T21:29:27.332Z,74.93
2022-09-11T21:31:56.766Z,74.87
2022-09-11T21:34:24.773Z,74.93
2022-09-11T21:36:52.845Z,75.01
2022-09-11T21:39:22.235Z,75.18
2022-09-11T21:41:50.377Z,75.31
2022-09-11T21:44:18.373Z,75.27
2022-09-11T21:46:46.480Z,75.24
2022-09-11T21:49:14.327Z,75.19
2022-09-11T21:51:46.560Z,75.25
2022-09-11T21:54:14.509Z,75.31
2022-09-11T21:56:42.904Z,75.55
2022-09-11T21:59:12.221Z,75.73
2022-09-11T22:01:41.626Z,75.74
2022-09-11T22:04:11.314Z,75.80
2022-09-11T22:06:39.211Z,75.99
2022-09-11T22:09:07.034Z,75.92
2022-09-11T22:11:37.976Z,75.98
2022-09-11T22:14:07.785Z,76.14
2022-09-11T22:16:35.710Z,76.16
2022-09-11T22:19:07.319Z,76.01
2022-09-11T22:21:35.098Z,76.07
2022-09-11T22:24:04.244Z,75.90
2022-09-11T22:26:33.883Z,75.73
2022-09-11T22:29:02.101Z,75.63
2022-09-11T22:31:30.159Z,75.53
2022-09-11T22:33:58.208Z,75.68
2022-09-11T22:36:27.899Z,75.69
2022-09-11T22:38:55.913Z,75.62
2022-09-11T22:41:23.939Z,75.56
2022-09-11T22:43:51.883Z,75.45
2022-09-11T22:46:23.927Z,75.42
2022-09-11T22:48:52.769Z,75.47
2022-09-11T22:51:20.758Z,75.37
2022-09-11T22:53:48.589Z,75.21
2022-09-11T22:56:17.244Z,75.26
2022-09-11T22:58:45.797Z,75.28
2022-09-11T23:01:21.721Z,75.32
2022-09-11T23:03:53.122Z,75.53
2022-09-11T23:06:41.616Z,75.64
2022-09-11T23:09:11.910Z,75.61
2022-09-11T23:11:40.103Z,75.42
2022-09-11T23:14:13.282Z,75.33
2022-09-11T23:16:44.643Z,75.40
2022-09-11T23:19:14.043Z,75.41
2022-09-11T23:21:42.019Z,75.63
2022-09-11T23:24:13.466Z,75.62
2022-09-11T23:26:41.740Z,75.77
2022-09-11T23:29:11.841Z,76.00
2022-09-11T23:31:40.111Z,75.99
2022-09-11T23:34:11.378Z,75.94
2022-09-11T23:36:39.254Z,75.85
2022-09-11T23:39:07.139Z,75.80
2022-09-11T23:41:36.695Z,75.91
2022-09-11T23:44:04.690Z,75.73
2022-09-11T23:46:32.633Z,75.63
2022-09-11T23:49:01.936Z,75.55
2022-09-11T23:51:30.034Z,75.37
2022-09-11T23:53:58.540Z,75.44
2022-09-11T23:56:27.815Z,75.12
2022-09-11T23:58:56.299Z,75.14
